sensor_id;sensor_type;location;lat;lon;timestamp;temperature;humidity
33149;DHT22;19506;51.040;3.856;2023-05-06T03:04:16;18.30;99.90
33149;DHT22;19506;51.040;3.856;2023-05-06T03:06:41;18.40;99.90
33149;DHT22;19506;51.040;3.856;2023-05-06T03:09:07;18.70;99.90
33149;DHT22;19506;51.040;3.856;2023-05-06T03:11:33;18.90;99.90
33149;DHT22;19506;51.040;3.856;2023-05-06T03:13:58;19.10;99.90
33149;DHT22;19506;51.040;3.856;2023-05-06T03:16:24;19.20;99.90
33149;DHT22;19506;51.040;3.856;2023-05-06T03:18:50;19.30;99.90
33149;DHT22;19506;51.040;3.856;2023-05-06T03:21:15;19.40;99.90
33149;DHT22;19506;51.040;3.856;2023-05-06T03:23:41;19.50;99.90
33149;DHT22;19506;51.040;3.856;2023-05-06T03:26:06;19.50;99.90
33149;DHT22;19506;51.040;3.856;2023-05-06T03:28:32;20.80;99.90
33149;DHT22;19506;51.040;3.856;2023-05-06T03:30:58;19.70;99.90
33149;DHT22;19506;51.040;3.856;2023-05-06T03:33:23;19.70;99.90
33149;DHT22;19506;51.040;3.856;2023-05-06T03:35:49;19.70;99.90
33149;DHT22;19506;51.040;3.856;2023-05-06T03:38:15;19.70;99.90
33149;DHT22;19506;51.040;3.856;2023-05-06T03:40:41;19.70;99.90
33149;DHT22;19506;51.040;3.856;2023-05-06T03:43:06;19.90;99.90
33149;DHT22;19506;51.040;3.856;2023-05-06T03:45:32;19.90;99.90
33149;DHT22;19506;51.040;3.856;2023-05-06T03:47:58;19.90;99.90
33149;DHT22;19506;51.040;3.856;2023-05-06T03:50:23;19.90;99.90
33149;DHT22;19506;51.040;3.856;2023-05-06T03:52:49;20.00;99.90
33149;DHT22;19506;51.040;3.856;2023-05-06T03:55:15;20.00;99.90
33149;DHT22;19506;51.040;3.856;2023-05-06T03:57:41;20.00;99.90
33149;DHT22;19506;51.040;3.856;2023-05-06T04:00:07;20.00;99.90
33149;DHT22;19506;51.040;3.856;2023-05-06T04:02:36;20.00;99.90
33149;DHT22;19506;51.040;3.856;2023-05-06T04:05:02;20.00;99.90
33149;DHT22;19506;51.040;3.856;2023-05-06T04:07:28;20.10;99.90
33149;DHT22;19506;51.040;3.856;2023-05-06T04:09:54;20.10;99.90
33149;DHT22;19506;51.040;3.856;2023-05-06T04:12:20;20.10;99.90
33149;DHT22;19506;51.040;3.856;2023-05-06T04:14:46;20.10;99.90
33149;DHT22;19506;51.040;3.856;2023-05-06T04:17:12;20.20;99.90
33149;DHT22;19506;51.040;3.856;2023-05-06T04:19:37;20.20;99.90
33149;DHT22;19506;51.040;3.856;2023-05-06T04:22:03;20.10;99.90
33149;DHT22;19506;51.040;3.856;2023-05-06T04:24:28;20.10;99.90
33149;DHT22;19506;51.040;3.856;2023-05-06T04:26:55;20.20;99.90
33149;DHT22;19506;51.040;3.856;2023-05-06T04:29:21;20.10;99.90
33149;DHT22;19506;51.040;3.856;2023-05-06T04:31:47;20.20;99.90
33149;DHT22;19506;51.040;3.856;2023-05-06T04:34:12;20.10;99.90
33149;DHT22;19506;51.040;3.856;2023-05-06T04:36:38;20.20;99.90
33149;DHT22;19506;51.040;3.856;2023-05-06T04:39:03;20.20;99.90
33149;DHT22;19506;51.040;3.856;2023-05-06T04:41:31;20.20;99.90
33149;DHT22;19506;51.040;3.856;2023-05-06T04:43:59;20.20;99.90
33149;DHT22;19506;51.040;3.856;2023-05-06T04:46:25;20.20;99.90
33149;DHT22;19506;51.040;3.856;2023-05-06T04:48:51;20.30;99.90
33149;DHT22;19506;51.040;3.856;2023-05-06T04:51:17;20.20;99.90
33149;DHT22;19506;51.040;3.856;2023-05-06T04:53:42;20.20;99.90
33149;DHT22;19506;51.040;3.856;2023-05-06T04:56:08;20.20;99.90
33149;DHT22;19506;51.040;3.856;2023-05-06T04:58:34;20.30;99.90
33149;DHT22;19506;51.040;3.856;2023-05-06T05:01:03;20.20;99.90
33149;DHT22;19506;51.040;3.856;2023-05-06T05:03:29;20.20;99.90
33149;DHT22;19506;51.040;3.856;2023-05-06T05:05:56;20.30;99.90
33149;DHT22;19506;51.040;3.856;2023-05-06T05:08:22;20.30;99.90
33149;DHT22;19506;51.040;3.856;2023-05-06T05:10:48;20.40;99.90
33149;DHT22;19506;51.040;3.856;2023-05-06T05:13:13;20.30;99.90
33149;DHT22;19506;51.040;3.856;2023-05-06T05:15:39;20.20;99.90
33149;DHT22;19506;51.040;3.856;2023-05-06T05:18:05;20.20;99.90
33149;DHT22;19506;51.040;3.856;2023-05-06T05:20:31;20.20;99.90
33149;DHT22;19506;51.040;3.856;2023-05-06T05:22:57;20.20;99.90
33149;DHT22;19506;51.040;3.856;2023-05-06T05:25:22;20.20;99.90
33149;DHT22;19506;51.040;3.856;2023-05-06T05:27:48;20.20;99.90
33149;DHT22;19506;51.040;3.856;2023-05-06T05:30:14;20.30;99.90
33149;DHT22;19506;51.040;3.856;2023-05-06T05:32:39;20.30;99.90
33149;DHT22;19506;51.040;3.856;2023-05-06T05:35:05;20.50;99.90
33149;DHT22;19506;51.040;3.856;2023-05-06T05:37:31;20.60;99.90
33149;DHT22;19506;51.040;3.856;2023-05-06T05:39:57;20.60;99.90
33149;DHT22;19506;51.040;3.856;2023-05-06T05:42:22;20.60;99.90
33149;DHT22;19506;51.040;3.856;2023-05-06T05:44:48;20.60;99.90
33149;DHT22;19506;51.040;3.856;2023-05-06T05:47:14;20.60;99.90
33149;DHT22;19506;51.040;3.856;2023-05-06T05:49:40;20.60;99.90
33149;DHT22;19506;51.040;3.856;2023-05-06T05:52:06;20.50;99.90
33149;DHT22;19506;51.040;3.856;2023-05-06T05:54:32;20.50;99.90
33149;DHT22;19506;51.040;3.856;2023-05-06T05:56:58;20.50;99.90
33149;DHT22;19506;51.040;3.856;2023-05-06T05:59:24;20.50;99.90
33149;DHT22;19506;51.040;3.856;2023-05-06T06:01:50;20.50;99.90
33149;DHT22;19506;51.040;3.856;2023-05-06T06:04:15;20.40;99.90
33149;DHT22;19506;51.040;3.856;2023-05-06T06:09:08;20.40;99.90
33149;DHT22;19506;51.040;3.856;2023-05-06T06:11:34;20.40;99.90
33149;DHT22;19506;51.040;3.856;2023-05-06T06:16:26;20.50;99.90
33149;DHT22;19506;51.040;3.856;2023-05-06T06:18:52;20.60;99.90
33149;DHT22;19506;51.040;3.856;2023-05-06T06:21:18;20.60;99.90
33149;DHT22;19506;51.040;3.856;2023-05-06T06:23:44;20.60;99.90
33149;DHT22;19506;51.040;3.856;2023-05-06T06:26:09;20.70;99.90
33149;DHT22;19506;51.040;3.856;2023-05-06T06:28:35;20.60;99.90
33149;DHT22;19506;51.040;3.856;2023-05-06T06:31:01;20.70;99.90
33149;DHT22;19506;51.040;3.856;2023-05-06T06:33:26;20.70;99.90
33149;DHT22;19506;51.040;3.856;2023-05-06T06:35:52;20.70;99.90
33149;DHT22;19506;51.040;3.856;2023-05-06T09:21:56;20.20;99.90
33149;DHT22;19506;51.040;3.856;2023-05-06T09:29:19;20.10;99.90
33149;DHT22;19506;51.040;3.856;2023-05-06T19:09:10;20.00;99.90
33149;DHT22;19506;51.040;3.856;2023-05-06T19:11:36;20.30;99.90
33149;DHT22;19506;51.040;3.856;2023-05-06T19:14:02;20.20;99.90
33149;DHT22;19506;51.040;3.856;2023-05-06T19:16:27;20.20;99.90
33149;DHT22;19506;51.040;3.856;2023-05-06T19:18:53;20.20;99.90
33149;DHT22;19506;51.040;3.856;2023-05-06T19:21:19;20.20;99.90
33149;DHT22;19506;51.040;3.856;2023-05-06T19:23:46;20.10;99.90
33149;DHT22;19506;51.040;3.856;2023-05-06T19:26:13;20.10;99.90
33149;DHT22;19506;51.040;3.856;2023-05-06T19:28:39;20.00;99.90
33149;DHT22;19506;51.040;3.856;2023-05-06T19:31:06;20.00;99.90
33149;DHT22;19506;51.040;3.856;2023-05-06T19:33:37;20.00;99.90
33149;DHT22;19506;51.040;3.856;2023-05-06T19:36:03;19.90;99.90
33149;DHT22;19506;51.040;3.856;2023-05-06T19:38:29;20.00;99.90
33149;DHT22;19506;51.040;3.856;2023-05-06T19:40:55;20.00;99.90
33149;DHT22;19506;51.040;3.856;2023-05-06T19:43:22;19.90;99.90
33149;DHT22;19506;51.040;3.856;2023-05-06T19:45:47;19.90;99.90
33149;DHT22;19506;51.040;3.856;2023-05-06T19:48:13;19.90;99.90
33149;DHT22;19506;51.040;3.856;2023-05-06T19:50:40;19.90;99.90
33149;DHT22;19506;51.040;3.856;2023-05-06T19:53:06;19.80;99.90
33149;DHT22;19506;51.040;3.856;2023-05-06T19:55:32;19.90;99.90
33149;DHT22;19506;51.040;3.856;2023-05-06T19:57:58;19.90;99.90
33149;DHT22;19506;51.040;3.856;2023-05-06T20:00:24;19.90;99.90
33149;DHT22;19506;51.040;3.856;2023-05-06T20:02:52;20.10;99.90
33149;DHT22;19506;51.040;3.856;2023-05-06T20:05:18;20.30;99.90
33149;DHT22;19506;51.040;3.856;2023-05-06T20:07:44;20.30;99.90
33149;DHT22;19506;51.040;3.856;2023-05-06T20:10:09;20.40;99.90
33149;DHT22;19506;51.040;3.856;2023-05-06T20:12:38;20.40;99.90
33149;DHT22;19506;51.040;3.856;2023-05-06T20:15:04;20.50;99.90
33149;DHT22;19506;51.040;3.856;2023-05-06T20:17:31;20.50;99.90
33149;DHT22;19506;51.040;3.856;2023-05-06T20:19:57;20.50;99.90
33149;DHT22;19506;51.040;3.856;2023-05-06T20:22:23;20.50;99.90
33149;DHT22;19506;51.040;3.856;2023-05-06T20:24:49;20.50;99.90
33149;DHT22;19506;51.040;3.856;2023-05-06T20:27:15;20.50;99.90
33149;DHT22;19506;51.040;3.856;2023-05-06T20:29:41;20.60;99.90
33149;DHT22;19506;51.040;3.856;2023-05-06T20:32:07;20.60;99.90
33149;DHT22;19506;51.040;3.856;2023-05-06T20:34:33;20.50;99.90
33149;DHT22;19506;51.040;3.856;2023-05-06T20:36:58;20.60;99.90
33149;DHT22;19506;51.040;3.856;2023-05-06T20:39:25;20.60;99.90
33149;DHT22;19506;51.040;3.856;2023-05-06T20:41:51;20.60;99.90
33149;DHT22;19506;51.040;3.856;2023-05-06T20:44:16;20.60;99.90
33149;DHT22;19506;51.040;3.856;2023-05-06T20:46:42;20.50;99.90
33149;DHT22;19506;51.040;3.856;2023-05-06T20:49:08;20.50;99.90
33149;DHT22;19506;51.040;3.856;2023-05-06T20:51:34;20.50;99.90
33149;DHT22;19506;51.040;3.856;2023-05-06T20:53:59;20.60;99.90
33149;DHT22;19506;51.040;3.856;2023-05-06T20:56:25;20.60;99.90
33149;DHT22;19506;51.040;3.856;2023-05-06T20:58:51;20.60;99.90
33149;DHT22;19506;51.040;3.856;2023-05-06T21:01:18;20.60;99.90
33149;DHT22;19506;51.040;3.856;2023-05-06T21:03:44;20.70;99.90
33149;DHT22;19506;51.040;3.856;2023-05-06T21:06:11;20.80;99.90
33149;DHT22;19506;51.040;3.856;2023-05-06T21:08:37;20.70;99.90
33149;DHT22;19506;51.040;3.856;2023-05-06T21:11:03;20.70;99.90
33149;DHT22;19506;51.040;3.856;2023-05-06T21:13:29;20.80;99.90
33149;DHT22;19506;51.040;3.856;2023-05-06T21:15:55;20.70;99.90
33149;DHT22;19506;51.040;3.856;2023-05-06T21:18:21;20.70;99.90
33149;DHT22;19506;51.040;3.856;2023-05-06T21:20:47;20.80;99.90
33149;DHT22;19506;51.040;3.856;2023-05-06T21:23:13;20.70;99.90
33149;DHT22;19506;51.040;3.856;2023-05-06T21:25:39;20.60;99.90
33149;DHT22;19506;51.040;3.856;2023-05-06T21:28:04;20.60;99.90
33149;DHT22;19506;51.040;3.856;2023-05-06T21:30:34;20.60;99.90
33149;DHT22;19506;51.040;3.856;2023-05-06T21:33:00;20.60;99.90
33149;DHT22;19506;51.040;3.856;2023-05-06T21:35:28;20.60;99.90
33149;DHT22;19506;51.040;3.856;2023-05-06T21:37:54;20.60;99.90
33149;DHT22;19506;51.040;3.856;2023-05-06T21:40:20;20.60;99.90
33149;DHT22;19506;51.040;3.856;2023-05-06T21:42:46;20.70;99.90
33149;DHT22;19506;51.040;3.856;2023-05-06T21:45:11;20.70;99.90
33149;DHT22;19506;51.040;3.856;2023-05-06T21:47:37;20.70;99.90
33149;DHT22;19506;51.040;3.856;2023-05-06T21:50:03;20.70;99.90
33149;DHT22;19506;51.040;3.856;2023-05-06T21:52:30;20.70;99.90
33149;DHT22;19506;51.040;3.856;2023-05-06T21:54:55;20.60;99.90
33149;DHT22;19506;51.040;3.856;2023-05-06T21:57:21;20.40;99.90
33149;DHT22;19506;51.040;3.856;2023-05-06T21:59:47;20.50;99.90
33149;DHT22;19506;51.040;3.856;2023-05-06T22:02:12;20.50;99.90
33149;DHT22;19506;51.040;3.856;2023-05-06T22:04:38;20.50;99.90
33149;DHT22;19506;51.040;3.856;2023-05-06T22:07:04;20.50;99.90
33149;DHT22;19506;51.040;3.856;2023-05-06T22:09:29;20.50;99.90
33149;DHT22;19506;51.040;3.856;2023-05-06T22:11:55;20.70;99.90
33149;DHT22;19506;51.040;3.856;2023-05-06T22:14:21;20.60;99.90
33149;DHT22;19506;51.040;3.856;2023-05-06T22:16:46;20.80;99.90
33149;DHT22;19506;51.040;3.856;2023-05-06T22:19:12;20.70;99.90
33149;DHT22;19506;51.040;3.856;2023-05-06T22:21:41;20.70;99.90
33149;DHT22;19506;51.040;3.856;2023-05-06T22:24:06;20.80;99.90
33149;DHT22;19506;51.040;3.856;2023-05-06T22:26:32;20.70;99.90
33149;DHT22;19506;51.040;3.856;2023-05-06T22:28:58;20.80;99.90
33149;DHT22;19506;51.040;3.856;2023-05-06T22:31:24;20.70;99.90
33149;DHT22;19506;51.040;3.856;2023-05-06T22:33:50;20.70;99.90
33149;DHT22;19506;51.040;3.856;2023-05-06T22:36:22;20.70;99.90
33149;DHT22;19506;51.040;3.856;2023-05-06T22:38:48;20.70;99.90
33149;DHT22;19506;51.040;3.856;2023-05-06T22:41:15;20.60;99.90
33149;DHT22;19506;51.040;3.856;2023-05-06T22:43:41;20.60;99.90
33149;DHT22;19506;51.040;3.856;2023-05-06T22:46:07;20.60;99.90
33149;DHT22;19506;51.040;3.856;2023-05-06T22:48:32;20.60;99.90
33149;DHT22;19506;51.040;3.856;2023-05-06T22:50:58;20.60;99.90
33149;DHT22;19506;51.040;3.856;2023-05-06T22:53:25;20.60;99.90
33149;DHT22;19506;51.040;3.856;2023-05-06T22:55:51;20.60;99.90
33149;DHT22;19506;51.040;3.856;2023-05-06T22:58:16;20.60;99.90
33149;DHT22;19506;51.040;3.856;2023-05-06T23:00:42;20.60;99.90
33149;DHT22;19506;51.040;3.856;2023-05-06T23:03:12;20.60;99.90
33149;DHT22;19506;51.040;3.856;2023-05-06T23:05:38;20.60;99.90
33149;DHT22;19506;51.040;3.856;2023-05-06T23:08:04;20.60;99.90
33149;DHT22;19506;51.040;3.856;2023-05-06T23:10:30;20.60;99.90
33149;DHT22;19506;51.040;3.856;2023-05-06T23:12:59;20.60;99.90
33149;DHT22;19506;51.040;3.856;2023-05-06T23:15:25;20.50;99.90
33149;DHT22;19506;51.040;3.856;2023-05-06T23:17:51;20.50;99.90
33149;DHT22;19506;51.040;3.856;2023-05-06T23:20:17;20.50;99.90
33149;DHT22;19506;51.040;3.856;2023-05-06T23:22:42;20.50;99.90
33149;DHT22;19506;51.040;3.856;2023-05-06T23:25:08;20.50;99.90
33149;DHT22;19506;51.040;3.856;2023-05-06T23:27:34;20.50;99.90
33149;DHT22;19506;51.040;3.856;2023-05-06T23:30:00;20.40;99.90
33149;DHT22;19506;51.040;3.856;2023-05-06T23:32:26;20.50;99.90
33149;DHT22;19506;51.040;3.856;2023-05-06T23:34:51;20.50;99.90
33149;DHT22;19506;51.040;3.856;2023-05-06T23:37:17;20.50;99.90
33149;DHT22;19506;51.040;3.856;2023-05-06T23:39:43;20.40;99.90
33149;DHT22;19506;51.040;3.856;2023-05-06T23:42:08;20.40;99.90
33149;DHT22;19506;51.040;3.856;2023-05-06T23:44:34;20.50;99.90
33149;DHT22;19506;51.040;3.856;2023-05-06T23:47:00;20.40;99.90
33149;DHT22;19506;51.040;3.856;2023-05-06T23:49:26;20.40;99.90
33149;DHT22;19506;51.040;3.856;2023-05-06T23:51:51;20.40;99.90
33149;DHT22;19506;51.040;3.856;2023-05-06T23:54:17;20.40;99.90
33149;DHT22;19506;51.040;3.856;2023-05-06T23:56:43;20.40;99.90
33149;DHT22;19506;51.040;3.856;2023-05-06T23:59:09;20.40;99.90
